Rye, New York
Current Conditions -  °F | °C
As of 8:56 PM on Sunday 25 Jan 2015 (Local Time) from KHPN Reporting Station
Clear Clear  
Wind Chill: 21°   Ceiling: Unl
Heat Index: 28°   Visibility: 10mi
Dew Point: 11°   Wind: 7mph
Humidity: 49%   Direction: 330°NNW
Pressure: 29.94"   Gusts: NA
Location:  40.98°N, 73.68°W
Report Text: KHPN 260156Z 33006KT 10SM CLR M02/M12 A2994 RMK AO2 SLP148 T10221117 $
Loading
Personal Weather Stations






























Interactive Weather Map New forecast layout! Learn more

10-Day Weather Forecast

Advertisements
Track Severe Weather on mobile